createdAt,value
2017-02-03T00:00:06.001Z,925.51
2017-02-03T00:00:20.561Z,925.52
2017-02-03T00:00:35.135Z,925.51
2017-02-03T00:00:49.631Z,925.49
2017-02-03T00:01:04.204Z,925.51
2017-02-03T00:01:18.737Z,925.52
2017-02-03T00:01:33.327Z,925.5
2017-02-03T00:01:47.925Z,925.51
2017-02-03T00:02:02.458Z,925.47
2017-02-03T00:02:16.974Z,925.5
2017-02-03T00:02:31.573Z,925.47
2017-02-03T00:02:46.119Z,925.44
2017-02-03T00:03:00.662Z,925.49
2017-02-03T00:03:15.189Z,925.47
2017-02-03T00:03:29.640Z,925.48
2017-02-03T00:03:44.219Z,925.51
2017-02-03T00:03:58.762Z,925.43
2017-02-03T00:04:13.293Z,925.49
2017-02-03T00:04:27.857Z,925.48
2017-02-03T00:04:42.357Z,925.5
2017-02-03T00:04:56.916Z,925.48
2017-02-03T00:05:11.659Z,925.47
2017-02-03T00:05:26.236Z,925.48
2017-02-03T00:05:40.755Z,925.47
2017-02-03T00:05:55.259Z,925.47
2017-02-03T00:06:09.794Z,925.5
2017-02-03T00:06:24.365Z,925.51
2017-02-03T00:06:38.974Z,925.53
2017-02-03T00:06:53.523Z,925.52
2017-02-03T00:07:08.070Z,925.5
2017-02-03T00:07:22.592Z,925.49
2017-02-03T00:07:37.163Z,925.54
2017-02-03T00:07:51.703Z,925.49
2017-02-03T00:08:06.509Z,925.5
2017-02-03T00:08:21.043Z,925.55
2017-02-03T00:08:35.631Z,925.52
2017-02-03T00:08:50.173Z,925.57
2017-02-03T00:09:04.770Z,925.54
2017-02-03T00:09:19.385Z,925.54
2017-02-03T00:09:33.918Z,925.55
2017-02-03T00:09:48.474Z,925.53
2017-02-03T00:10:03.018Z,925.54
2017-02-03T00:10:17.546Z,925.55
2017-02-03T00:10:32.143Z,925.5
2017-02-03T00:10:46.705Z,925.54
2017-02-03T00:11:01.238Z,925.52
2017-02-03T00:11:15.782Z,925.51
2017-02-03T00:11:30.350Z,925.5
2017-02-03T00:11:44.900Z,925.51
2017-02-03T00:11:59.485Z,925.49
2017-02-03T00:12:14.050Z,925.5
2017-02-03T00:12:28.577Z,925.5
2017-02-03T00:12:43.162Z,925.48
2017-02-03T00:12:57.755Z,925.49
2017-02-03T00:13:12.309Z,925.49
2017-02-03T00:13:26.847Z,925.49
2017-02-03T00:13:41.466Z,925.5
2017-02-03T00:13:56.010Z,925.49
2017-02-03T00:14:10.639Z,925.49
2017-02-03T00:14:25.217Z,925.51
2017-02-03T00:14:39.768Z,925.5
2017-02-03T00:14:54.312Z,925.47
2017-02-03T00:15:08.836Z,925.5
2017-02-03T00:15:23.396Z,925.49
2017-02-03T00:15:37.999Z,925.47
2017-02-03T00:15:52.515Z,925.46
2017-02-03T00:16:07.084Z,925.49
2017-02-03T00:16:21.594Z,925.5
2017-02-03T00:16:36.079Z,925.49
2017-02-03T00:16:50.604Z,925.47
2017-02-03T00:17:05.115Z,925.49
2017-02-03T00:17:19.643Z,925.49
2017-02-03T00:17:34.191Z,925.47
2017-02-03T00:17:48.715Z,925.53
2017-02-03T00:18:03.189Z,925.51
2017-02-03T00:18:17.699Z,925.53
2017-02-03T00:18:32.219Z,925.51
2017-02-03T00:18:46.805Z,925.49
2017-02-03T00:19:01.308Z,925.51
2017-02-03T00:19:15.894Z,925.48
2017-02-03T00:19:30.441Z,925.5
2017-02-03T00:19:45.008Z,925.46
2017-02-03T00:19:59.603Z,925.47
2017-02-03T00:20:14.398Z,925.48
2017-02-03T00:20:28.997Z,925.47
2017-02-03T00:20:43.564Z,925.48
2017-02-03T00:20:58.129Z,925.46
2017-02-03T00:21:12.699Z,925.5
2017-02-03T00:21:27.302Z,925.51
2017-02-03T00:21:41.855Z,925.48
2017-02-03T00:21:56.391Z,925.53
2017-02-03T00:22:10.971Z,925.5
2017-02-03T00:22:25.535Z,925.48
2017-02-03T00:22:40.110Z,925.47
2017-02-03T00:22:54.691Z,925.51
2017-02-03T00:23:09.243Z,925.49
2017-02-03T00:23:23.870Z,925.51
2017-02-03T00:23:38.433Z,925.49
2017-02-03T00:23:53.027Z,925.47
2017-02-03T00:24:07.597Z,925.48
2017-02-03T00:24:22.124Z,925.48
2017-02-03T00:24:36.723Z,925.48
2017-02-03T00:24:51.240Z,925.5
2017-02-03T00:25:05.842Z,925.5
2017-02-03T00:25:20.434Z,925.49
2017-02-03T00:25:34.992Z,925.51
2017-02-03T00:25:49.549Z,925.51
2017-02-03T00:26:04.137Z,925.52
2017-02-03T00:26:18.699Z,925.52
2017-02-03T00:26:33.261Z,925.5
2017-02-03T00:26:47.826Z,925.54
2017-02-03T00:27:02.372Z,925.51
2017-02-03T00:27:16.927Z,925.48
2017-02-03T00:27:31.448Z,925.52
2017-02-03T00:27:46.015Z,925.52
2017-02-03T00:28:00.542Z,925.55
2017-02-03T00:28:15.040Z,925.5
2017-02-03T00:28:29.557Z,925.52
2017-02-03T00:28:44.093Z,925.54
2017-02-03T00:28:58.703Z,925.53
2017-02-03T00:29:13.268Z,925.55
2017-02-03T00:29:27.759Z,925.52
2017-02-03T00:29:42.260Z,925.5
2017-02-03T00:29:56.812Z,925.55
2017-02-03T00:30:11.366Z,925.51
2017-02-03T00:30:25.889Z,925.56
2017-02-03T00:30:40.448Z,925.56
2017-02-03T00:30:55.019Z,925.52
2017-02-03T00:31:09.570Z,925.52
2017-02-03T00:31:24.143Z,925.56
2017-02-03T00:31:38.734Z,925.58
2017-02-03T00:31:53.269Z,925.56
2017-02-03T00:32:07.826Z,925.55
2017-02-03T00:32:22.433Z,925.54
2017-02-03T00:32:36.937Z,925.6
2017-02-03T00:32:51.536Z,925.55
2017-02-03T00:33:06.066Z,925.58
2017-02-03T00:33:20.567Z,925.59
2017-02-03T00:33:35.147Z,925.62
2017-02-03T00:33:49.705Z,925.58
2017-02-03T00:34:04.264Z,925.59
2017-02-03T00:34:18.809Z,925.59
2017-02-03T00:34:33.340Z,925.58
2017-02-03T00:34:47.907Z,925.61
2017-02-03T00:35:02.478Z,925.6
2017-02-03T00:35:17.224Z,925.57
2017-02-03T00:35:31.759Z,925.58
2017-02-03T00:35:46.308Z,925.62
2017-02-03T00:36:00.789Z,925.6
2017-02-03T00:36:15.371Z,925.58
2017-02-03T00:36:29.921Z,925.61
2017-02-03T00:36:44.528Z,925.6
2017-02-03T00:36:59.074Z,925.59
2017-02-03T00:37:13.588Z,925.6
2017-02-03T00:37:28.160Z,925.58
2017-02-03T00:37:42.657Z,925.59
2017-02-03T00:37:57.250Z,925.55
2017-02-03T00:38:11.865Z,925.61
2017-02-03T00:38:26.388Z,925.61
2017-02-03T00:38:40.927Z,925.6
2017-02-03T00:38:55.467Z,925.61
2017-02-03T00:39:09.992Z,925.59
2017-02-03T00:39:24.525Z,925.6
2017-02-03T00:39:39.077Z,925.6
2017-02-03T00:39:53.584Z,925.6
2017-02-03T00:40:08.126Z,925.6
2017-02-03T00:40:22.645Z,925.6
2017-02-03T00:40:37.203Z,925.62
2017-02-03T00:40:51.774Z,925.66
2017-02-03T00:41:06.359Z,925.65
2017-02-03T00:41:20.865Z,925.67
2017-02-03T00:41:35.420Z,925.66
2017-02-03T00:41:49.952Z,925.65
2017-02-03T00:42:04.559Z,925.64
2017-02-03T00:42:19.129Z,925.63
2017-02-03T00:42:33.662Z,925.7
2017-02-03T00:42:48.186Z,925.66
2017-02-03T00:43:02.672Z,925.68
2017-02-03T00:43:17.245Z,925.7
2017-02-03T00:43:31.770Z,925.7
2017-02-03T00:43:46.319Z,925.66
2017-02-03T00:44:00.863Z,925.68
2017-02-03T00:44:15.364Z,925.7
2017-02-03T00:44:29.953Z,925.67
2017-02-03T00:44:44.515Z,925.71
2017-02-03T00:44:59.055Z,925.69
2017-02-03T00:45:13.645Z,925.72
2017-02-03T00:45:28.277Z,925.71
2017-02-03T00:45:42.825Z,925.69
2017-02-03T00:45:57.363Z,925.68
2017-02-03T00:46:11.921Z,925.68
2017-02-03T00:46:26.479Z,925.7
2017-02-03T00:46:41.067Z,925.72
2017-02-03T00:46:55.596Z,925.73
2017-02-03T00:47:10.139Z,925.7
2017-02-03T00:47:24.652Z,925.72
2017-02-03T00:47:39.192Z,925.65
2017-02-03T00:47:53.654Z,925.66
2017-02-03T00:48:08.427Z,925.7
2017-02-03T00:48:22.969Z,925.67
2017-02-03T00:48:37.512Z,925.7
2017-02-03T00:48:52.023Z,925.71
2017-02-03T00:49:06.581Z,925.71
2017-02-03T00:49:21.131Z,925.7
2017-02-03T00:49:35.690Z,925.71
2017-02-03T00:49:50.202Z,925.71
2017-02-03T00:50:04.747Z,925.69
2017-02-03T00:50:19.309Z,925.69
2017-02-03T00:50:34.083Z,925.67
2017-02-03T00:50:48.647Z,925.67
2017-02-03T00:51:03.177Z,925.71
2017-02-03T00:51:17.745Z,925.68
2017-02-03T00:51:32.257Z,925.67
2017-02-03T00:51:46.780Z,925.72
2017-02-03T00:52:01.314Z,925.7
2017-02-03T00:52:15.882Z,925.68
2017-02-03T00:52:30.451Z,925.67
2017-02-03T00:52:45.006Z,925.66
2017-02-03T00:52:59.527Z,925.69
2017-02-03T00:53:14.086Z,925.63
2017-02-03T00:53:28.651Z,925.66
2017-02-03T00:53:43.243Z,925.65
2017-02-03T00:53:57.797Z,925.61
2017-02-03T00:54:12.349Z,925.61
2017-02-03T00:54:26.897Z,925.67
2017-02-03T00:54:41.388Z,925.6
2017-02-03T00:54:55.920Z,925.58
2017-02-03T00:55:10.480Z,925.59
2017-02-03T00:55:24.971Z,925.6
2017-02-03T00:55:39.612Z,925.57
2017-02-03T00:55:54.136Z,925.6
2017-02-03T00:56:08.650Z,925.58
2017-02-03T00:56:23.195Z,925.57
2017-02-03T00:56:37.701Z,925.58
2017-02-03T00:56:52.347Z,925.54
2017-02-03T00:57:06.883Z,925.56
2017-02-03T00:57:21.466Z,925.53
2017-02-03T00:57:36.001Z,925.52
2017-02-03T00:57:50.573Z,925.52
2017-02-03T00:58:05.118Z,925.52
2017-02-03T00:58:19.637Z,925.51
2017-02-03T00:58:34.170Z,925.5
2017-02-03T00:58:48.713Z,925.46
2017-02-03T00:59:03.269Z,925.47
2017-02-03T00:59:17.810Z,925.45
2017-02-03T00:59:32.340Z,925.44
2017-02-03T00:59:46.854Z,925.47
2017-02-03T01:00:01.400Z,925.41
2017-02-03T01:00:15.994Z,925.4
2017-02-03T01:00:30.536Z,925.39
2017-02-03T01:00:45.137Z,925.34
2017-02-03T01:00:59.652Z,925.35
2017-02-03T01:01:14.238Z,925.34
2017-02-03T01:01:28.817Z,925.31
2017-02-03T01:01:43.386Z,925.29
2017-02-03T01:01:57.966Z,925.29
2017-02-03T01:02:12.527Z,925.27
2017-02-03T01:02:27.045Z,925.27
2017-02-03T01:02:41.569Z,925.27
2017-02-03T01:02:56.088Z,925.29
2017-02-03T01:03:10.616Z,925.28
2017-02-03T01:03:25.150Z,925.28
2017-02-03T01:03:39.690Z,925.27
2017-02-03T01:03:54.219Z,925.25
2017-02-03T01:04:08.768Z,925.28
2017-02-03T01:04:23.385Z,925.25
2017-02-03T01:04:37.926Z,925.24
2017-02-03T01:04:52.491Z,925.21
2017-02-03T01:05:07.050Z,925.23
2017-02-03T01:05:21.587Z,925.25
2017-02-03T01:05:36.339Z,925.25
2017-02-03T01:05:50.893Z,925.25
2017-02-03T01:06:05.444Z,925.25
2017-02-03T01:06:20.017Z,925.25
2017-02-03T01:06:34.600Z,925.25
2017-02-03T01:06:49.158Z,925.27
2017-02-03T01:07:03.721Z,925.23
2017-02-03T01:07:18.213Z,925.22
2017-02-03T01:07:32.829Z,925.19
2017-02-03T01:07:47.363Z,925.22
2017-02-03T01:08:01.909Z,925.21
2017-02-03T01:08:16.459Z,925.21
2017-02-03T01:08:31.048Z,925.2
2017-02-03T01:08:45.597Z,925.21
2017-02-03T01:09:00.099Z,925.17
2017-02-03T01:09:14.689Z,925.2
2017-02-03T01:09:29.277Z,925.17
2017-02-03T01:09:43.812Z,925.21
2017-02-03T01:09:58.429Z,925.2
2017-02-03T01:10:12.973Z,925.18
2017-02-03T01:10:27.562Z,925.18
2017-02-03T01:10:42.100Z,925.17
2017-02-03T01:10:56.638Z,925.16
2017-02-03T01:11:11.204Z,925.17
2017-02-03T01:11:25.764Z,925.17
2017-02-03T01:11:40.309Z,925.16
2017-02-03T01:11:54.810Z,925.17
2017-02-03T01:12:09.430Z,925.15
2017-02-03T01:12:24.229Z,925.16
2017-02-03T01:12:38.807Z,925.15
2017-02-03T01:12:53.363Z,925.18
2017-02-03T01:13:07.922Z,925.16
2017-02-03T01:13:22.481Z,925.16
2017-02-03T01:13:37.037Z,925.16
2017-02-03T01:13:51.586Z,925.15
2017-02-03T01:14:06.148Z,925.19
2017-02-03T01:14:20.712Z,925.15
2017-02-03T01:14:35.235Z,925.17
2017-02-03T01:14:49.792Z,925.16
2017-02-03T01:15:04.430Z,925.17
2017-02-03T01:15:18.954Z,925.2
2017-02-03T01:15:33.502Z,925.21
2017-02-03T01:15:48.349Z,925.21
2017-02-03T01:16:02.878Z,925.24
2017-02-03T01:16:17.408Z,925.2
2017-02-03T01:16:32.013Z,925.24
2017-02-03T01:16:46.578Z,925.25
2017-02-03T01:17:01.131Z,925.21
2017-02-03T01:17:15.627Z,925.24
2017-02-03T01:17:30.158Z,925.2
2017-02-03T01:17:44.736Z,925.2
2017-02-03T01:17:59.279Z,925.23
2017-02-03T01:18:13.864Z,925.23
2017-02-03T01:18:28.407Z,925.23
2017-02-03T01:18:42.953Z,925.28
2017-02-03T01:18:57.474Z,925.28
2017-02-03T01:19:12.225Z,925.29
2017-02-03T01:19:26.757Z,925.29
2017-02-03T01:19:41.286Z,925.32
2017-02-03T01:19:55.836Z,925.33
2017-02-03T01:20:10.336Z,925.32
2017-02-03T01:20:24.880Z,925.32
2017-02-03T01:20:39.729Z,925.3
2017-02-03T01:20:54.270Z,925.29
2017-02-03T01:21:08.780Z,925.32
2017-02-03T01:21:23.318Z,925.32
2017-02-03T01:21:37.831Z,925.3
2017-02-03T01:21:52.338Z,925.33
2017-02-03T01:22:06.870Z,925.36
2017-02-03T01:22:21.449Z,925.35
2017-02-03T01:22:36.041Z,925.35
2017-02-03T01:22:50.665Z,925.39
2017-02-03T01:23:05.234Z,925.41
2017-02-03T01:23:19.796Z,925.4
2017-02-03T01:23:34.320Z,925.41
2017-02-03T01:23:48.878Z,925.4
2017-02-03T01:24:03.446Z,925.4
2017-02-03T01:24:18.092Z,925.4
2017-02-03T01:24:32.609Z,925.44
2017-02-03T01:24:47.144Z,925.42
2017-02-03T01:25:01.710Z,925.42
2017-02-03T01:25:16.261Z,925.45
2017-02-03T01:25:30.873Z,925.44
2017-02-03T01:25:45.419Z,925.46
2017-02-03T01:25:59.981Z,925.48
2017-02-03T01:26:14.541Z,925.47
2017-02-03T01:26:29.326Z,925.52
2017-02-03T01:26:43.883Z,925.49
2017-02-03T01:26:58.413Z,925.49
2017-02-03T01:27:13.048Z,925.5
2017-02-03T01:27:27.623Z,925.52
2017-02-03T01:27:42.169Z,925.49
2017-02-03T01:27:56.761Z,925.52
2017-02-03T01:28:11.291Z,925.52
2017-02-03T01:28:25.884Z,925.53
2017-02-03T01:28:40.402Z,925.56
2017-02-03T01:28:54.944Z,925.55
2017-02-03T01:29:09.518Z,925.57
2017-02-03T01:29:24.070Z,925.56
2017-02-03T01:29:38.604Z,925.56
2017-02-03T01:29:53.179Z,925.57
2017-02-03T01:30:07.719Z,925.56
2017-02-03T01:30:22.331Z,925.57
2017-02-03T01:30:36.869Z,925.59
2017-02-03T01:30:51.403Z,925.57
2017-02-03T01:31:06.008Z,925.62
2017-02-03T01:31:20.566Z,925.56
2017-02-03T01:31:35.119Z,925.57
2017-02-03T01:31:49.698Z,925.58
2017-02-03T01:32:04.214Z,925.56
2017-02-03T01:32:18.776Z,925.6
2017-02-03T01:32:33.356Z,925.61
2017-02-03T01:32:47.938Z,925.6
2017-02-03T01:33:02.507Z,925.61
2017-02-03T01:33:17.078Z,925.59
2017-02-03T01:33:31.677Z,925.63
2017-02-03T01:33:46.250Z,925.58
2017-02-03T01:34:00.811Z,925.58
2017-02-03T01:34:15.414Z,925.57
2017-02-03T01:34:29.937Z,925.53
2017-02-03T01:34:44.523Z,925.57
2017-02-03T01:34:59.074Z,925.55
2017-02-03T01:35:13.650Z,925.56
2017-02-03T01:35:28.195Z,925.56
2017-02-03T01:35:43.021Z,925.59
2017-02-03T01:35:57.598Z,925.59
2017-02-03T01:36:12.148Z,925.6
2017-02-03T01:36:26.747Z,925.58
2017-02-03T01:36:41.263Z,925.6
2017-02-03T01:36:55.815Z,925.6
2017-02-03T01:37:10.415Z,925.6
2017-02-03T01:37:24.957Z,925.61
2017-02-03T01:37:39.528Z,925.61
2017-02-03T01:37:54.047Z,925.61
2017-02-03T01:38:08.633Z,925.61
2017-02-03T01:38:23.172Z,925.61
2017-02-03T01:38:37.742Z,925.62
2017-02-03T01:38:52.336Z,925.63
2017-02-03T01:39:07.000Z,925.66
2017-02-03T01:39:21.527Z,925.63
2017-02-03T01:39:36.090Z,925.66
2017-02-03T01:39:50.625Z,925.62
2017-02-03T01:40:05.237Z,925.65
2017-02-03T01:40:19.876Z,925.66
2017-02-03T01:40:34.406Z,925.63
2017-02-03T01:40:48.957Z,925.65
2017-02-03T01:41:03.517Z,925.66
2017-02-03T01:41:18.084Z,925.61
2017-02-03T01:41:32.650Z,925.66
2017-02-03T01:41:47.207Z,925.65
2017-02-03T01:42:01.783Z,925.64
2017-02-03T01:42:16.404Z,925.62
2017-02-03T01:42:30.930Z,925.64
2017-02-03T01:42:45.503Z,925.66
2017-02-03T01:43:00.046Z,925.64
2017-02-03T01:43:14.577Z,925.64
2017-02-03T01:43:29.135Z,925.64
2017-02-03T01:43:43.682Z,925.64
2017-02-03T01:43:58.214Z,925.63
2017-02-03T01:44:12.742Z,925.64
2017-02-03T01:44:27.300Z,925.62
2017-02-03T01:44:41.844Z,925.66
2017-02-03T01:44:56.410Z,925.64
2017-02-03T01:45:10.942Z,925.63
2017-02-03T01:45:25.486Z,925.63
2017-02-03T01:45:40.031Z,925.64
2017-02-03T01:45:54.568Z,925.62
2017-02-03T01:46:09.202Z,925.65
2017-02-03T01:46:23.770Z,925.63
2017-02-03T01:46:38.323Z,925.66
2017-02-03T01:46:52.855Z,925.66
2017-02-03T01:47:07.346Z,925.64
2017-02-03T01:47:21.868Z,925.67
2017-02-03T01:47:36.426Z,925.66
2017-02-03T01:47:51.020Z,925.62
2017-02-03T01:48:05.645Z,925.65
2017-02-03T01:48:20.163Z,925.67
2017-02-03T01:48:34.727Z,925.65
2017-02-03T01:48:49.333Z,925.64
2017-02-03T01:49:03.881Z,925.67
2017-02-03T01:49:18.373Z,925.66
2017-02-03T01:49:32.901Z,925.64
2017-02-03T01:49:47.471Z,925.67
2017-02-03T01:50:02.062Z,925.67
2017-02-03T01:50:16.635Z,925.65
2017-02-03T01:50:31.142Z,925.66
2017-02-03T01:50:45.726Z,925.65
2017-02-03T01:51:00.554Z,925.67
2017-02-03T01:51:15.109Z,925.66
2017-02-03T01:51:29.654Z,925.7
2017-02-03T01:51:44.160Z,925.65
2017-02-03T01:51:58.677Z,925.65
2017-02-03T01:52:13.236Z,925.65
2017-02-03T01:52:27.778Z,925.63
2017-02-03T01:52:42.328Z,925.65
2017-02-03T01:52:56.824Z,925.67
2017-02-03T01:53:11.326Z,925.64
2017-02-03T01:53:25.874Z,925.64
2017-02-03T01:53:40.437Z,925.64
2017-02-03T01:53:55.049Z,925.64
2017-02-03T01:54:09.635Z,925.6
2017-02-03T01:54:24.158Z,925.65
2017-02-03T01:54:38.691Z,925.62
2017-02-03T01:54:53.203Z,925.6
2017-02-03T01:55:07.719Z,925.59
2017-02-03T01:55:22.275Z,925.57
2017-02-03T01:55:36.747Z,925.57
2017-02-03T01:55:51.309Z,925.55
2017-02-03T01:56:05.874Z,925.57
2017-02-03T01:56:20.388Z,925.57
2017-02-03T01:56:34.952Z,925.58
2017-02-03T01:56:49.535Z,925.6
2017-02-03T01:57:04.057Z,925.6
2017-02-03T01:57:18.571Z,925.6
2017-02-03T01:57:33.084Z,925.61
2017-02-03T01:57:47.596Z,925.64
2017-02-03T01:58:02.132Z,925.62
2017-02-03T01:58:16.713Z,925.64
2017-02-03T01:58:31.204Z,925.64
2017-02-03T01:58:45.713Z,925.66
2017-02-03T01:59:00.208Z,925.66
2017-02-03T01:59:14.733Z,925.63
2017-02-03T01:59:29.270Z,925.65
2017-02-03T01:59:43.886Z,925.63
2017-02-03T01:59:58.434Z,925.65
2017-02-03T02:00:13.010Z,925.67
2017-02-03T02:00:27.577Z,925.66
2017-02-03T02:00:42.059Z,925.66
2017-02-03T02:00:56.605Z,925.65
2017-02-03T02:01:11.193Z,925.63
2017-02-03T02:01:25.720Z,925.66
2017-02-03T02:01:40.326Z,925.65
2017-02-03T02:01:54.911Z,925.63
2017-02-03T02:02:09.486Z,925.63
2017-02-03T02:02:24.080Z,925.62
2017-02-03T02:02:38.574Z,925.63
2017-02-03T02:02:53.063Z,925.62
2017-02-03T02:03:07.601Z,925.63
2017-02-03T02:03:22.099Z,925.63
2017-02-03T02:03:36.644Z,925.66
2017-02-03T02:03:51.146Z,925.6
2017-02-03T02:04:05.669Z,925.64
2017-02-03T02:04:20.219Z,925.63
2017-02-03T02:04:34.763Z,925.6
2017-02-03T02:04:49.329Z,925.62
2017-02-03T02:05:03.875Z,925.63
2017-02-03T02:05:18.436Z,925.62
2017-02-03T02:05:33.008Z,925.64
2017-02-03T02:05:47.512Z,925.65
2017-02-03T02:06:02.299Z,925.62
2017-02-03T02:06:16.785Z,925.62
2017-02-03T02:06:31.304Z,925.63
2017-02-03T02:06:45.812Z,925.64
2017-02-03T02:07:00.299Z,925.64
2017-02-03T02:07:14.867Z,925.61
2017-02-03T02:07:29.435Z,925.62
2017-02-03T02:07:43.963Z,925.6
2017-02-03T02:07:58.479Z,925.64
2017-02-03T02:08:13.066Z,925.65
2017-02-03T02:08:27.631Z,925.62
2017-02-03T02:08:42.106Z,925.65
2017-02-03T02:08:57.203Z,925.62
2017-02-03T02:09:11.760Z,925.63
2017-02-03T02:09:26.303Z,925.62
2017-02-03T02:09:40.817Z,925.64
2017-02-03T02:09:55.405Z,925.62
2017-02-03T02:10:09.960Z,925.6
2017-02-03T02:10:24.563Z,925.59
2017-02-03T02:10:39.122Z,925.56
2017-02-03T02:10:53.672Z,925.58
2017-02-03T02:11:08.221Z,925.61
2017-02-03T02:11:22.725Z,925.56
2017-02-03T02:11:37.308Z,925.6
2017-02-03T02:11:51.773Z,925.57
2017-02-03T02:12:06.263Z,925.57
2017-02-03T02:12:20.791Z,925.58
2017-02-03T02:12:35.283Z,925.57
2017-02-03T02:12:49.835Z,925.59
2017-02-03T02:13:04.681Z,925.54
2017-02-03T02:13:19.217Z,925.52
2017-02-03T02:13:33.786Z,925.55
2017-02-03T02:13:48.279Z,925.54
2017-02-03T02:14:02.789Z,925.57
2017-02-03T02:14:17.325Z,925.53
2017-02-03T02:14:31.885Z,925.51
2017-02-03T02:14:46.515Z,925.49
2017-02-03T02:15:01.073Z,925.52
2017-02-03T02:15:15.575Z,925.49
2017-02-03T02:15:30.125Z,925.51
2017-02-03T02:15:44.655Z,925.54
2017-02-03T02:15:59.212Z,925.54
2017-02-03T02:16:13.788Z,925.53
2017-02-03T02:16:28.985Z,925.51
2017-02-03T02:16:43.533Z,925.53
2017-02-03T02:16:58.081Z,925.52
2017-02-03T02:17:12.608Z,925.54
2017-02-03T02:17:27.140Z,925.52
2017-02-03T02:17:41.692Z,925.53
2017-02-03T02:17:56.184Z,925.52
2017-02-03T02:18:10.756Z,925.51
2017-02-03T02:18:25.233Z,925.53
2017-02-03T02:18:39.756Z,925.51
2017-02-03T02:18:54.277Z,925.48
2017-02-03T02:19:08.905Z,925.51
2017-02-03T02:19:23.427Z,925.51
2017-02-03T02:19:37.914Z,925.48
2017-02-03T02:19:52.383Z,925.52
2017-02-03T02:20:06.926Z,925.5
2017-02-03T02:20:21.424Z,925.5
2017-02-03T02:20:35.978Z,925.49
2017-02-03T02:20:50.488Z,925.51
2017-02-03T02:21:05.236Z,925.47
2017-02-03T02:21:19.795Z,925.52
2017-02-03T02:21:34.378Z,925.51
2017-02-03T02:21:48.941Z,925.48
2017-02-03T02:22:03.540Z,925.53
2017-02-03T02:22:18.045Z,925.52
2017-02-03T02:22:32.602Z,925.52
2017-02-03T02:22:47.133Z,925.5
2017-02-03T02:23:01.685Z,925.55
2017-02-03T02:23:16.283Z,925.53
2017-02-03T02:23:30.819Z,925.51
2017-02-03T02:23:45.378Z,925.53
2017-02-03T02:23:59.947Z,925.52
2017-02-03T02:24:14.487Z,925.51
2017-02-03T02:24:28.984Z,925.53
2017-02-03T02:24:43.502Z,925.53
2017-02-03T02:24:58.027Z,925.55
2017-02-03T02:25:12.551Z,925.51
2017-02-03T02:25:27.136Z,925.54
2017-02-03T02:25:41.689Z,925.53
2017-02-03T02:25:56.255Z,925.53
2017-02-03T02:26:10.762Z,925.54
2017-02-03T02:26:25.304Z,925.5
2017-02-03T02:26:39.830Z,925.52
2017-02-03T02:26:54.395Z,925.52
2017-02-03T02:27:08.916Z,925.54
2017-02-03T02:27:23.441Z,925.48
2017-02-03T02:27:37.951Z,925.53
2017-02-03T02:27:52.488Z,925.49
2017-02-03T02:28:07.011Z,925.52
2017-02-03T02:28:21.499Z,925.51
2017-02-03T02:28:36.052Z,925.48
2017-02-03T02:28:50.569Z,925.51
2017-02-03T02:29:05.106Z,925.47
2017-02-03T02:29:19.619Z,925.49
2017-02-03T02:29:34.187Z,925.45
2017-02-03T02:29:48.745Z,925.47
2017-02-03T02:30:03.468Z,925.47
2017-02-03T02:30:18.047Z,925.45
2017-02-03T02:30:32.584Z,925.45
2017-02-03T02:30:47.129Z,925.45
2017-02-03T02:31:01.630Z,925.44
2017-02-03T02:31:16.163Z,925.41
2017-02-03T02:31:30.679Z,925.42
2017-02-03T02:31:45.202Z,925.43
2017-02-03T02:31:59.743Z,925.42
2017-02-03T02:32:14.319Z,925.42
2017-02-03T02:32:28.861Z,925.4
2017-02-03T02:32:43.392Z,925.42
2017-02-03T02:32:57.922Z,925.42
2017-02-03T02:33:12.456Z,925.41
2017-02-03T02:33:26.975Z,925.41
2017-02-03T02:33:41.482Z,925.37
2017-02-03T02:33:56.028Z,925.4
2017-02-03T02:34:10.537Z,925.38
2017-02-03T02:34:25.098Z,925.41
2017-02-03T02:34:39.622Z,925.38
2017-02-03T02:34:54.177Z,925.36
2017-02-03T02:35:08.734Z,925.38
2017-02-03T02:35:23.278Z,925.38
2017-02-03T02:35:37.813Z,925.36
2017-02-03T02:35:52.390Z,925.39
2017-02-03T02:36:06.927Z,925.37
2017-02-03T02:36:21.670Z,925.32
2017-02-03T02:36:36.192Z,925.34
2017-02-03T02:36:50.744Z,925.36
2017-02-03T02:37:05.333Z,925.36
2017-02-03T02:37:19.867Z,925.38
2017-02-03T02:37:34.357Z,925.34
2017-02-03T02:37:48.933Z,925.36
2017-02-03T02:38:03.447Z,925.37
2017-02-03T02:38:17.926Z,925.4
2017-02-03T02:38:32.447Z,925.36
2017-02-03T02:38:46.960Z,925.37
2017-02-03T02:39:01.493Z,925.38
2017-02-03T02:39:15.989Z,925.42
2017-02-03T02:39:30.469Z,925.39
2017-02-03T02:39:45.011Z,925.38
2017-02-03T02:39:59.525Z,925.38
2017-02-03T02:40:14.050Z,925.38
2017-02-03T02:40:28.564Z,925.4
2017-02-03T02:40:43.147Z,925.4
2017-02-03T02:40:57.626Z,925.37
2017-02-03T02:41:12.179Z,925.37
2017-02-03T02:41:26.709Z,925.42
2017-02-03T02:41:41.275Z,925.41
2017-02-03T02:41:55.803Z,925.41
2017-02-03T02:42:10.344Z,925.41
2017-02-03T02:42:24.883Z,925.42
2017-02-03T02:42:39.411Z,925.4
2017-02-03T02:42:53.937Z,925.41
2017-02-03T02:43:08.508Z,925.36
2017-02-03T02:43:23.060Z,925.38
2017-02-03T02:43:37.607Z,925.41
2017-02-03T02:43:52.122Z,925.36
2017-02-03T02:44:06.651Z,925.38
2017-02-03T02:44:21.192Z,925.36
2017-02-03T02:44:35.722Z,925.4
2017-02-03T02:44:50.201Z,925.39
2017-02-03T02:45:04.745Z,925.36
2017-02-03T02:45:19.229Z,925.35
2017-02-03T02:45:33.756Z,925.39
2017-02-03T02:45:48.294Z,925.38
2017-02-03T02:46:02.839Z,925.36
2017-02-03T02:46:17.405Z,925.4
2017-02-03T02:46:31.912Z,925.35
2017-02-03T02:46:46.405Z,925.36
2017-02-03T02:47:00.902Z,925.35
2017-02-03T02:47:15.442Z,925.34
2017-02-03T02:47:29.967Z,925.34
2017-02-03T02:47:44.524Z,925.39
2017-02-03T02:47:59.059Z,925.35
2017-02-03T02:48:13.590Z,925.34
2017-02-03T02:48:28.140Z,925.33
2017-02-03T02:48:43.747Z,925.33
2017-02-03T02:48:58.282Z,925.36
2017-02-03T02:49:12.764Z,925.34
2017-02-03T02:49:27.308Z,925.33
2017-02-03T02:49:41.840Z,925.32
2017-02-03T02:49:56.346Z,925.32
2017-02-03T02:50:10.907Z,925.29
2017-02-03T02:50:25.397Z,925.35
2017-02-03T02:50:39.920Z,925.34
2017-02-03T02:50:54.472Z,925.32
2017-02-03T02:51:09.037Z,925.34
2017-02-03T02:51:23.755Z,925.32
2017-02-03T02:51:38.276Z,925.32
2017-02-03T02:51:52.855Z,925.32
2017-02-03T02:52:07.402Z,925.33
2017-02-03T02:52:21.901Z,925.31
2017-02-03T02:52:36.446Z,925.34
2017-02-03T02:52:50.956Z,925.28
2017-02-03T02:53:05.471Z,925.31
2017-02-03T02:53:19.989Z,925.28
2017-02-03T02:53:34.559Z,925.29
2017-02-03T02:53:49.165Z,925.29
2017-02-03T02:54:03.711Z,925.25
2017-02-03T02:54:18.233Z,925.3
2017-02-03T02:54:32.767Z,925.29
2017-02-03T02:54:47.320Z,925.23
2017-02-03T02:55:01.892Z,925.25
2017-02-03T02:55:16.454Z,925.26
2017-02-03T02:55:30.984Z,925.24
2017-02-03T02:55:45.485Z,925.22
2017-02-03T02:55:59.986Z,925.24
2017-02-03T02:56:14.550Z,925.22
2017-02-03T02:56:29.034Z,925.24
2017-02-03T02:56:43.572Z,925.21
2017-02-03T02:56:58.050Z,925.21
2017-02-03T02:57:12.583Z,925.19
2017-02-03T02:57:27.103Z,925.16
2017-02-03T02:57:41.630Z,925.17
2017-02-03T02:57:56.150Z,925.17
2017-02-03T02:58:10.664Z,925.11
2017-02-03T02:58:25.219Z,925.12
2017-02-03T02:58:39.829Z,925.12
2017-02-03T02:58:54.381Z,925.1
2017-02-03T02:59:08.926Z,925.11
2017-02-03T02:59:23.467Z,925.09
2017-02-03T02:59:37.932Z,925.07
2017-02-03T02:59:52.512Z,925.1
2017-02-03T03:00:07.089Z,925.07
2017-02-03T03:00:21.613Z,925.08
2017-02-03T03:00:36.131Z,925.06
2017-02-03T03:00:50.612Z,925.07
2017-02-03T03:01:05.167Z,925.08
2017-02-03T03:01:19.686Z,925.07
2017-02-03T03:01:34.183Z,925.06
2017-02-03T03:01:48.696Z,925.08
2017-02-03T03:02:03.302Z,925.06
2017-02-03T03:02:17.832Z,925.05